Time;durP1;ratioP1;P1;durP2;ratioP2;P2;SDS_P1;SDS_P2;PMS_P1;PMS_P2;Temp;Humidity;BMP_temperature;BMP_pressure;BME280_temperature;BME280_humidity;BME280_pressure;Samples;Min_cycle;Max_cycle;Signal;HPM_P1;HPM_P2
2022/06/03 00:02:50;;;;;;;4.70;4.20;;;13.90;99.90;;;;;;5092650;28;20534;-94
2022/06/03 00:05:49;;;;;;;4.17;3.77;;;13.90;99.90;;;;;;5091133;28;20485;-94
2022/06/03 00:08:39;;;;;;;4.47;3.87;;;13.90;99.90;;;;;;5090061;28;20457;-94
2022/06/03 00:11:28;;;;;;;4.30;3.90;;;13.90;99.90;;;;;;5093251;28;20517;-93
2022/06/03 00:14:26;;;;;;;6.00;4.20;;;13.90;99.90;;;;;;5096431;28;20454;-93
2022/06/03 00:17:03;;;;;;;5.83;4.20;;;13.90;99.90;;;;;;5096191;28;20450;-93
2022/06/03 00:19:52;;;;;;;4.57;4.13;;;13.90;99.90;;;;;;5093833;28;20474;-93
2022/06/03 00:22:46;;;;;;;4.87;4.47;;;13.90;99.90;;;;;;5094266;28;20447;-92
2022/06/03 00:25:33;;;;;;;4.40;4.10;;;13.90;99.90;;;;;;5094864;28;20478;-92
2022/06/03 00:28:16;;;;;;;4.47;4.07;;;13.90;99.90;;;;;;5093745;28;20462;-92
2022/06/03 00:30:55;;;;;;;5.27;4.37;;;13.90;99.90;;;;;;5095597;28;20496;-94
2022/06/03 00:33:44;;;;;;;5.40;4.00;;;13.80;99.90;;;;;;5095245;28;20438;-93
2022/06/03 00:36:36;;;;;;;4.40;4.07;;;13.80;99.90;;;;;;5093448;28;20545;-93
2022/06/03 00:39:15;;;;;;;3.97;3.67;;;13.70;99.90;;;;;;5093713;28;20560;-94
2022/06/03 00:41:55;;;;;;;4.40;4.03;;;13.70;99.90;;;;;;5095725;28;20525;-93
2022/06/03 00:44:56;;;;;;;6.30;4.10;;;13.70;99.90;;;;;;5095205;28;20481;-93
2022/06/03 00:47:40;;;;;;;5.07;4.10;;;13.70;99.90;;;;;;5091275;28;20532;-94
2022/06/03 00:50:30;;;;;;;5.60;4.97;;;13.70;99.90;;;;;;5098860;28;20477;-94
2022/06/03 00:53:22;;;;;;;6.50;4.67;;;13.60;99.90;;;;;;5097935;28;20444;-92
2022/06/03 00:56:36;;;;;;;4.70;4.30;;;13.60;99.90;;;;;;5098683;28;20451;-93
2022/06/03 00:59:22;;;;;;;4.83;4.43;;;13.60;99.90;;;;;;4997567;28;20473;-93
2022/06/03 01:02:02;;;;;;;5.47;4.63;;;13.60;99.90;;;;;;5100529;28;20501;-93
2022/06/03 01:04:41;;;;;;;4.50;4.07;;;13.60;99.90;;;;;;5101251;28;20553;-94
2022/06/03 01:07:17;;;;;;;4.43;4.03;;;13.60;99.90;;;;;;5101225;28;20559;-94
2022/06/03 01:10:12;;;;;;;4.67;4.13;;;13.60;99.90;;;;;;5100832;28;20480;-94
2022/06/03 01:13:06;;;;;;;4.40;4.00;;;13.60;99.90;;;;;;5101061;28;20512;-94
2022/06/03 01:15:41;;;;;;;4.77;4.30;;;13.60;99.90;;;;;;5101214;28;20442;-95
2022/06/03 01:18:21;;;;;;;4.47;4.07;;;13.60;99.90;;;;;;5099480;28;20438;-92
2022/06/03 01:21:05;;;;;;;4.50;3.93;;;13.50;99.90;;;;;;5102089;28;20458;-93
2022/06/03 01:24:15;;;;;;;4.97;4.47;;;13.50;99.90;;;;;;5098001;28;20453;-93
2022/06/03 01:27:10;;;;;;;4.70;4.30;;;13.50;99.90;;;;;;5099290;28;20465;-93
2022/06/03 01:29:53;;;;;;;4.63;4.20;;;13.50;99.90;;;;;;5098864;28;20482;-92
2022/06/03 01:32:56;;;;;;;4.30;3.90;;;13.50;99.90;;;;;;5099769;28;20454;-94
2022/06/03 01:35:56;;;;;;;4.70;4.30;;;13.40;99.90;;;;;;5099870;28;20444;-94
2022/06/03 01:38:40;;;;;;;4.40;4.00;;;13.40;99.90;;;;;;5099648;28;20443;-94
2022/06/03 01:41:24;;;;;;;4.87;4.47;;;13.40;99.90;;;;;;5099746;28;20435;-93
2022/06/03 01:44:17;;;;;;;4.40;4.10;;;13.40;99.90;;;;;;5099976;28;20466;-95
2022/06/03 01:47:03;;;;;;;5.50;5.00;;;13.30;99.90;;;;;;5073302;28;20450;-95
2022/06/03 01:49:56;;;;;;;4.77;4.27;;;13.30;99.90;;;;;;5099456;28;20459;-92
2022/06/03 01:52:49;;;;;;;4.17;3.83;;;13.30;99.90;;;;;;5097572;28;20454;-94
2022/06/03 01:55:52;;;;;;;4.27;3.87;;;13.30;99.90;;;;;;5095107;28;20465;-94
2022/06/03 01:58:49;;;;;;;4.33;3.93;;;13.30;99.90;;;;;;5094685;28;20478;-94
2022/06/03 02:02:15;;;;;;;5.03;4.60;;;13.30;99.90;;;;;;5105404;22;20856;-68
2022/06/03 02:05:07;;;;;;;5.07;4.50;;;13.30;99.90;;;;;;5072203;28;20486;-68
2022/06/03 02:08:23;;;;;;;7.53;4.63;;;13.30;99.90;;;;;;5038917;28;20462;-67
2022/06/03 02:11:16;;;;;;;4.97;4.47;;;13.20;99.90;;;;;;5010280;28;21317;-68
2022/06/03 02:14:00;;;;;;;5.37;4.90;;;13.20;99.90;;;;;;5010065;28;20500;-69
2022/06/03 02:17:05;;;;;;;5.00;4.60;;;13.20;99.90;;;;;;5055502;28;20461;-69
2022/06/03 02:19:56;;;;;;;4.90;4.50;;;13.20;99.90;;;;;;5071658;28;20459;-69
2022/06/03 02:22:55;;;;;;;4.13;3.73;;;13.30;99.90;;;;;;5072221;28;20479;-71
2022/06/03 02:25:44;;;;;;;5.57;4.47;;;13.30;99.90;;;;;;5072016;28;20493;-71
2022/06/03 02:28:25;;;;;;;4.50;4.20;;;13.30;99.90;;;;;;5071606;28;20459;-70
2022/06/03 02:31:25;;;;;;;5.17;4.67;;;13.20;99.90;;;;;;5071887;28;20469;-70
2022/06/03 02:34:21;;;;;;;4.17;3.87;;;13.30;99.90;;;;;;5071823;28;20474;-70
2022/06/03 02:37:33;;;;;;;4.33;3.93;;;13.30;99.90;;;;;;5071638;28;20827;-73
2022/06/03 02:40:16;;;;;;;4.83;3.90;;;13.30;99.90;;;;;;5071102;28;21008;-69
2022/06/03 02:43:15;;;;;;;4.67;4.30;;;13.30;99.90;;;;;;5071277;28;20573;-70
2022/06/03 02:46:07;;;;;;;4.30;3.90;;;13.30;99.90;;;;;;5071339;28;21009;-70
2022/06/03 02:49:06;;;;;;;4.33;4.03;;;13.30;99.90;;;;;;5070887;28;20458;-71
2022/06/03 02:52:06;;;;;;;4.00;3.63;;;13.30;99.90;;;;;;5071805;28;20458;-72
2022/06/03 02:55:12;;;;;;;4.50;4.10;;;13.30;99.90;;;;;;5071463;28;20490;-69
2022/06/03 02:57:58;;;;;;;4.20;3.90;;;13.30;99.90;;;;;;5071349;28;21027;-70
2022/06/03 03:00:37;;;;;;;4.57;4.10;;;13.20;99.90;;;;;;5071079;28;20462;-70
2022/06/03 03:03:45;;;;;;;3.80;3.50;;;13.20;99.90;;;;;;5071387;28;20521;-72
2022/06/03 03:06:45;;;;;;;4.83;4.20;;;13.20;99.90;;;;;;5071292;28;20454;-69
2022/06/03 03:09:25;;;;;;;5.43;4.33;;;13.20;99.90;;;;;;5070833;28;20461;-69
2022/06/03 03:12:27;;;;;;;5.10;3.90;;;13.30;99.90;;;;;;5071093;28;20824;-70
2022/06/03 03:15:35;;;;;;;4.17;3.77;;;13.30;99.90;;;;;;5071126;28;20969;-70
2022/06/03 03:18:29;;;;;;;4.50;4.20;;;13.30;99.90;;;;;;5059534;28;20477;-69
2022/06/03 03:21:23;;;;;;;4.63;4.20;;;13.30;99.90;;;;;;5070900;28;20458;-70
2022/06/03 03:24:20;;;;;;;4.63;4.30;;;13.30;99.90;;;;;;5070348;28;21016;-70
2022/06/03 03:26:56;;;;;;;5.23;4.50;;;13.30;99.90;;;;;;5070974;28;20875;-70
2022/06/03 03:29:51;;;;;;;4.70;4.13;;;13.30;99.90;;;;;;5070114;28;20469;-70
2022/06/03 03:32:29;;;;;;;4.87;4.37;;;13.30;99.90;;;;;;5070159;28;20475;-72
2022/06/03 03:35:08;;;;;;;4.13;3.83;;;13.30;99.90;;;;;;5069402;28;20458;-71
2022/06/03 03:38:09;;;;;;;4.67;4.00;;;13.30;99.90;;;;;;5069988;28;20973;-70
2022/06/03 03:41:08;;;;;;;4.70;4.30;;;13.30;99.90;;;;;;5069142;28;20466;-70
2022/06/03 03:44:07;;;;;;;4.77;4.37;;;13.30;99.90;;;;;;5068968;28;20479;-69
2022/06/03 03:47:10;;;;;;;5.03;4.63;;;13.20;99.90;;;;;;5068169;28;20457;-70
2022/06/03 03:50:14;;;;;;;4.47;4.18;;;13.20;99.90;;;;;;5068995;28;20461;-70
2022/06/03 03:53:18;;;;;;;4.33;4.03;;;13.20;99.90;;;;;;5069534;28;20208;-70
2022/06/03 03:56:19;;;;;;;4.70;4.30;;;13.20;99.90;;;;;;5069769;28;20446;-70
2022/06/03 03:59:10;;;;;;;4.80;4.40;;;13.30;99.90;;;;;;5066738;28;20455;-70
2022/06/03 04:02:16;;;;;;;5.40;4.37;;;13.30;99.90;;;;;;5049116;28;20470;-71
2022/06/03 04:05:18;;;;;;;4.87;4.47;;;13.30;99.90;;;;;;5015604;28;20478;-72
2022/06/03 04:08:15;;;;;;;5.30;4.80;;;13.30;99.90;;;;;;5021303;28;20467;-72
2022/06/03 04:11:24;;;;;;;4.53;4.10;;;13.20;99.90;;;;;;5049084;28;20448;-71
2022/06/03 04:14:18;;;;;;;4.27;3.97;;;13.20;99.90;;;;;;5048799;28;20478;-71
2022/06/03 04:17:16;;;;;;;7.80;4.43;;;13.20;99.90;;;;;;5047582;28;20452;-71
2022/06/03 04:20:17;;;;;;;4.57;4.00;;;13.20;99.90;;;;;;5048391;28;20455;-71
2022/06/03 04:23:14;;;;;;;4.40;4.10;;;13.20;99.90;;;;;;5044437;28;20475;-70
2022/06/03 04:26:14;;;;;;;4.17;3.87;;;13.30;99.90;;;;;;5048851;28;20479;-72
2022/06/03 04:29:04;;;;;;;4.90;4.50;;;13.30;99.90;;;;;;5048820;28;20838;-71
2022/06/03 04:32:26;;;;;;;4.77;4.30;;;13.30;99.90;;;;;;5049558;28;20472;-71
2022/06/03 04:35:30;;;;;;;4.23;3.93;;;13.30;99.90;;;;;;4987668;28;20550;-71
2022/06/03 04:38:24;;;;;;;5.00;4.47;;;13.40;99.90;;;;;;4988416;28;20466;-71
2022/06/03 04:41:27;;;;;;;5.20;4.70;;;13.40;99.90;;;;;;5050407;28;20474;-70
2022/06/03 04:44:40;;;;;;;5.20;4.70;;;13.40;99.90;;;;;;5049915;28;20483;-71
2022/06/03 04:47:38;;;;;;;5.43;4.93;;;13.50;99.90;;;;;;5050513;28;20455;-70
2022/06/03 04:50:57;;;;;;;5.03;4.17;;;13.60;99.90;;;;;;5049556;28;20983;-70
2022/06/03 04:54:23;;;;;;;5.40;4.90;;;13.60;99.90;;;;;;5050159;28;20487;-69
2022/06/03 04:57:36;;;;;;;4.77;4.30;;;13.70;99.90;;;;;;5050343;28;20518;-69
2022/06/03 05:00:22;;;;;;;5.57;5.07;;;13.80;99.90;;;;;;5055787;28;20462;-70
2022/06/03 05:03:38;;;;;;;5.47;4.93;;;13.90;99.90;;;;;;5064056;28;20505;-70
2022/06/03 05:06:58;;;;;;;6.17;5.60;;;14.00;99.90;;;;;;5073548;28;20486;-70
2022/06/03 05:10:11;;;;;;;6.77;5.83;;;14.10;99.90;;;;;;5073181;28;20504;-69
2022/06/03 05:13:26;;;;;;;7.23;6.50;;;14.20;99.90;;;;;;5073085;28;20501;-70
2022/06/03 05:16:19;;;;;;;5.80;5.30;;;14.40;99.90;;;;;;5073280;28;20465;-70
2022/06/03 05:19:18;;;;;;;5.53;5.03;;;14.50;99.90;;;;;;5072792;28;20465;-69
2022/06/03 05:22:31;;;;;;;6.90;6.30;;;14.60;99.90;;;;;;5073181;28;20451;-70
2022/06/03 05:25:18;;;;;;;6.43;5.90;;;14.80;99.90;;;;;;5045436;28;20478;-70
2022/06/03 05:28:10;;;;;;;6.40;5.50;;;14.90;99.90;;;;;;5072949;28;20458;-69
2022/06/03 05:31:24;;;;;;;6.10;5.47;;;15.00;99.90;;;;;;5073125;28;20465;-70
2022/06/03 05:34:20;;;;;;;5.87;5.37;;;15.10;99.90;;;;;;5072849;28;20517;-70
2022/06/03 05:37:19;;;;;;;7.00;6.40;;;15.20;99.90;;;;;;5073035;28;20973;-70
2022/06/03 05:40:19;;;;;;;7.30;6.70;;;15.30;99.90;;;;;;5072290;28;20454;-69
2022/06/03 05:43:16;;;;;;;6.73;6.10;;;15.40;99.90;;;;;;5072800;28;20482;-69
2022/06/03 05:46:08;;;;;;;6.83;6.23;;;15.50;99.90;;;;;;5072854;28;20478;-70
2022/06/03 05:48:51;;;;;;;7.43;6.73;;;15.70;99.90;;;;;;5072386;28;20465;-70
2022/06/03 05:51:44;;;;;;;7.13;6.47;;;15.70;99.90;;;;;;5072938;28;20466;-70
2022/06/03 05:54:19;;;;;;;5.60;5.20;;;15.90;99.90;;;;;;5073028;28;20479;-70
2022/06/03 05:56:53;;;;;;;6.30;5.70;;;16.00;99.90;;;;;;5072627;28;20459;-71
2022/06/03 05:59:39;;;;;;;7.60;6.73;;;16.10;99.90;;;;;;5072279;28;20484;-71
2022/06/03 06:02:19;;;;;;;5.90;5.40;;;16.20;99.90;;;;;;5072374;28;20478;-70
2022/06/03 06:05:01;;;;;;;7.30;5.90;;;16.30;99.90;;;;;;5070674;28;20454;-70
2022/06/03 06:07:35;;;;;;;6.57;6.07;;;16.40;99.90;;;;;;5071052;28;20454;-71
2022/06/03 06:10:11;;;;;;;6.10;5.50;;;16.50;99.90;;;;;;5071341;28;20462;-70
2022/06/03 06:12:48;;;;;;;6.83;6.23;;;16.60;99.90;;;;;;5072103;28;20505;-71
2022/06/03 06:15:55;;;;;;;6.33;5.83;;;16.80;99.90;;;;;;5072364;28;20454;-70
2022/06/03 06:18:33;;;;;;;7.50;6.80;;;17.00;99.90;;;;;;5035474;28;20469;-70
2022/06/03 06:21:12;;;;;;;5.87;5.37;;;17.00;99.90;;;;;;5072549;28;20458;-70
2022/06/03 06:23:44;;;;;;;6.10;5.60;;;17.10;99.90;;;;;;5071743;28;20478;-70
2022/06/03 06:26:53;;;;;;;5.30;4.80;;;17.20;99.90;;;;;;5072324;28;20569;-70
2022/06/03 06:29:42;;;;;;;5.77;5.23;;;17.30;99.90;;;;;;5035392;28;20970;-71
2022/06/03 06:32:36;;;;;;;5.63;5.13;;;17.40;99.90;;;;;;5072061;28;20454;-70
2022/06/03 06:35:43;;;;;;;5.77;5.27;;;17.50;99.90;;;;;;5064673;28;20462;-70
2022/06/03 06:38:16;;;;;;;5.73;5.27;;;17.60;99.90;;;;;;5070646;28;20454;-71
2022/06/03 06:40:57;;;;;;;5.87;5.20;;;17.80;99.90;;;;;;5068487;28;20459;-72
2022/06/03 06:43:39;;;;;;;5.97;5.20;;;17.80;99.90;;;;;;5071190;28;20510;-71
2022/06/03 06:46:12;;;;;;;5.90;5.37;;;17.90;99.90;;;;;;5071214;28;20577;-71
2022/06/03 06:48:53;;;;;;;6.70;5.50;;;18.00;99.90;;;;;;5070814;28;20466;-72
2022/06/03 06:51:48;;;;;;;5.30;4.83;;;18.10;99.90;;;;;;5070928;28;20464;-71
2022/06/03 06:54:25;;;;;;;5.73;5.13;;;18.10;99.90;;;;;;5063471;28;20522;-71
2022/06/03 06:56:59;;;;;;;5.90;5.30;;;18.20;99.90;;;;;;5069609;28;20466;-72
2022/06/03 06:59:33;;;;;;;5.10;4.70;;;18.30;99.90;;;;;;5069784;28;20458;-71
2022/06/03 07:02:07;;;;;;;7.43;4.90;;;18.40;99.90;;;;;;5069924;28;20562;-72
2022/06/03 07:04:38;;;;;;;5.67;5.20;;;18.60;99.90;;;;;;5069491;28;20560;-72
2022/06/03 07:07:14;;;;;;;5.60;4.77;;;18.70;99.90;;;;;;5069792;28;21015;-72
2022/06/03 07:09:51;;;;;;;5.87;5.37;;;18.90;99.90;;;;;;5069279;28;20466;-71
2022/06/03 07:12:22;;;;;;;8.43;5.00;;;19.00;99.90;;;;;;5069419;28;20455;-71
2022/06/03 07:15:00;;;;;;;6.80;5.70;;;19.10;99.90;;;;;;5069752;28;20473;-71
2022/06/03 07:20:37;;;;;;;9.00;6.03;;;19.40;99.90;;;;;;5068687;28;20442;-71
2022/06/03 07:23:11;;;;;;;6.10;5.50;;;19.50;99.90;;;;;;5069734;28;20474;-71
2022/06/03 07:25:45;;;;;;;6.53;5.00;;;19.60;99.90;;;;;;5069994;28;20486;-70
2022/06/03 07:28:26;;;;;;;11.93;7.13;;;19.80;99.90;;;;;;5068391;28;20465;-71
2022/06/03 07:30:57;;;;;;;8.53;5.63;;;19.90;99.90;;;;;;5069546;28;20474;-72
2022/06/03 07:33:40;;;;;;;6.33;5.70;;;20.10;99.90;;;;;;5069080;28;21025;-72
2022/06/03 07:36:17;;;;;;;7.70;5.30;;;20.40;99.90;;;;;;5069572;28;21037;-71
2022/06/03 07:38:52;;;;;;;5.83;5.30;;;20.50;99.90;;;;;;5055851;28;20934;-72
2022/06/03 07:41:26;;;;;;;6.17;5.60;;;20.60;99.90;;;;;;5049104;28;20520;-70
2022/06/03 07:43:59;;;;;;;6.00;5.40;;;20.70;99.90;;;;;;5049603;28;20993;-71
2022/06/03 07:46:30;;;;;;;6.47;4.97;;;20.70;99.90;;;;;;5049678;28;20494;-72
2022/06/03 07:48:57;;;;;;;7.30;5.17;;;20.70;99.90;;;;;;5048469;28;20466;-71
2022/06/03 07:51:31;;;;;;;6.00;5.50;;;20.70;99.90;;;;;;5049731;28;20461;-70
2022/06/03 07:54:05;;;;;;;4.93;4.40;;;20.80;99.90;;;;;;5048945;28;20475;-71
2022/06/03 07:56:34;;;;;;;5.23;4.73;;;20.80;99.90;;;;;;5049623;28;20491;-71
2022/06/03 07:59:06;;;;;;;4.60;4.20;;;20.90;99.90;;;;;;5048231;28;20962;-71
2022/06/03 08:01:37;;;;;;;5.10;4.20;;;21.00;99.90;;;;;;5067210;28;20462;-71
2022/06/03 08:04:05;;;;;;;6.63;4.50;;;21.00;99.90;;;;;;5068748;28;20478;-71
2022/06/03 08:12:00;;;;;;;5.73;4.97;;;21.30;99.90;;;;;;5068858;28;20442;-70
2022/06/03 08:14:28;;;;;;;5.30;4.70;;;21.50;99.90;;;;;;5069413;28;20458;-70
2022/06/03 08:16:56;;;;;;;5.23;4.67;;;21.60;99.90;;;;;;5069042;28;20474;-71
2022/06/03 08:19:27;;;;;;;5.40;4.90;;;21.70;99.90;;;;;;5068377;28;20540;-70
2022/06/03 08:21:56;;;;;;;5.10;4.50;;;21.80;99.90;;;;;;5068974;28;20489;-70
2022/06/03 08:24:27;;;;;;;4.53;4.10;;;21.90;99.90;;;;;;5069225;28;20485;-71
2022/06/03 08:26:57;;;;;;;6.27;4.67;;;21.90;99.90;;;;;;5060435;28;20498;-71
2022/06/03 08:29:33;;;;;;;5.23;4.33;;;22.10;99.90;;;;;;5067439;28;20459;-70
2022/06/03 08:32:01;;;;;;;5.47;4.33;;;22.20;99.90;;;;;;5069438;28;20557;-71
2022/06/03 08:34:32;;;;;;;4.30;3.70;;;22.40;99.90;;;;;;5072944;28;20464;-71
2022/06/03 08:37:00;;;;;;;5.30;4.37;;;22.50;99.90;;;;;;5072316;28;20458;-71
2022/06/03 08:39:32;;;;;;;6.30;4.60;;;22.60;99.90;;;;;;5072449;28;20462;-71
2022/06/03 08:42:10;;;;;;;4.03;3.63;;;22.70;99.90;;;;;;5071130;28;20454;-70
2022/06/03 08:44:47;;;;;;;4.00;3.70;;;22.70;99.90;;;;;;5072575;28;20488;-70
2022/06/03 08:47:20;;;;;;;8.23;3.90;;;22.80;99.90;;;;;;5072653;28;20508;-71
2022/06/03 08:49:57;;;;;;;4.73;3.90;;;22.90;99.90;;;;;;5071833;28;20485;-71
2022/06/03 08:52:36;;;;;;;5.23;4.20;;;23.10;99.90;;;;;;5072373;28;20485;-70
2022/06/03 08:55:22;;;;;;;4.10;3.70;;;23.10;99.90;;;;;;5070715;28;20462;-71
2022/06/03 08:57:54;;;;;;;5.30;4.00;;;23.00;99.90;;;;;;5071752;28;20466;-71
2022/06/03 09:00:27;;;;;;;4.73;4.20;;;23.00;99.90;;;;;;5071962;28;20472;-70
2022/06/03 09:03:00;;;;;;;5.83;4.07;;;23.10;99.90;;;;;;5070430;28;20479;-68
2022/06/03 09:05:33;;;;;;;7.30;4.80;;;23.10;99.90;;;;;;5071406;28;20450;-71
2022/06/03 09:08:05;;;;;;;4.27;3.87;;;23.20;99.90;;;;;;5069211;28;20463;-71
2022/06/03 09:10:41;;;;;;;4.20;3.80;;;23.40;99.90;;;;;;5071136;28;20951;-70
2022/06/03 09:13:16;;;;;;;7.77;3.67;;;23.50;99.90;;;;;;5069690;28;20501;-71
2022/06/03 09:15:48;;;;;;;4.60;4.13;;;23.60;99.90;;;;;;5071331;28;20470;-71
2022/06/03 09:18:18;;;;;;;4.33;3.43;;;23.70;99.90;;;;;;5069571;28;20470;-71
2022/06/03 09:20:52;;;;;;;5.57;3.77;;;23.70;99.90;;;;;;5071163;28;21021;-71
2022/06/03 09:23:21;;;;;;;4.27;3.70;;;23.90;99.90;;;;;;5070373;28;20995;-71
2022/06/03 09:25:51;;;;;;;5.37;4.17;;;24.00;99.90;;;;;;5070560;28;20461;-70
2022/06/03 09:28:23;;;;;;;4.10;3.60;;;24.00;99.90;;;;;;5070365;28;20804;-70
2022/06/03 09:30:53;;;;;;;4.87;4.10;;;24.10;99.90;;;;;;5069714;28;20977;-70
2022/06/03 09:33:22;;;;;;;3.80;3.50;;;24.30;99.90;;;;;;5070704;28;20482;-70
2022/06/03 09:35:52;;;;;;;4.90;3.70;;;24.50;99.90;;;;;;5070129;28;20657;-70
2022/06/03 09:38:23;;;;;;;5.20;3.43;;;24.60;99.90;;;;;;5070331;28;20826;-70
2022/06/03 09:40:53;;;;;;;4.30;3.70;;;24.60;99.90;;;;;;5070342;28;20459;-71
2022/06/03 09:43:25;;;;;;;3.73;3.33;;;24.70;99.90;;;;;;5068325;28;20489;-70
2022/06/03 09:45:56;;;;;;;3.90;3.60;;;24.90;99.90;;;;;;5070317;28;20467;-70
2022/06/03 09:48:26;;;;;;;3.73;3.43;;;25.00;99.90;;;;;;5069599;28;20494;-69
2022/06/03 09:50:55;;;;;;;4.50;3.87;;;25.10;99.90;;;;;;5070051;28;20834;-70
2022/06/03 09:53:26;;;;;;;4.20;3.77;;;25.30;99.90;;;;;;5070661;28;20483;-69
2022/06/03 09:55:56;;;;;;;4.00;3.70;;;25.40;99.90;;;;;;5068932;28;20833;-70
2022/06/03 09:58:26;;;;;;;3.73;3.43;;;25.50;99.90;;;;;;5069607;28;20467;-70
2022/06/03 10:00:56;;;;;;;5.87;3.80;;;25.40;99.90;;;;;;5034534;28;1033934;-69
2022/06/03 10:03:24;;;;;;;4.10;3.80;;;25.30;99.90;;;;;;5071315;28;20237;-70
2022/06/03 10:05:53;;;;;;;3.90;3.47;;;25.40;99.90;;;;;;5071496;28;20818;-70
2022/06/03 10:08:23;;;;;;;4.97;4.03;;;25.40;99.90;;;;;;5056126;28;20855;-70
2022/06/03 10:13:38;;;;;;;4.03;3.53;;;25.80;99.90;;;;;;5051606;28;20458;-71
2022/06/03 10:16:08;;;;;;;3.97;3.67;;;26.10;99.90;;;;;;5050953;28;20488;-71
2022/06/03 10:18:38;;;;;;;6.10;3.70;;;26.30;99.90;;;;;;5030863;28;20563;-70
2022/06/03 10:21:27;;;;;;;3.50;3.20;;;26.50;99.90;;;;;;5047619;28;21268;-70
2022/06/03 10:23:56;;;;;;;3.73;3.43;;;26.70;99.90;;;;;;5050666;28;20491;-70
2022/06/03 10:26:27;;;;;;;3.87;3.57;;;27.00;99.90;;;;;;5051078;28;20480;-70
2022/06/03 10:28:57;;;;;;;3.83;3.50;;;26.90;99.90;;;;;;5050303;28;20467;-70
2022/06/03 10:31:32;;;;;;;3.73;3.37;;;27.00;99.90;;;;;;5052334;28;20464;-70
2022/06/03 10:34:01;;;;;;;4.33;3.30;;;26.90;99.90;;;;;;5070560;28;20487;-69
2022/06/03 10:36:30;;;;;;;4.00;3.20;;;26.80;99.90;;;;;;5070406;28;20494;-71
2022/06/03 10:38:56;;;;;;;4.60;3.33;;;26.70;99.90;;;;;;5069924;28;20462;-70
2022/06/03 10:41:32;;;;;;;3.80;3.50;;;26.70;99.90;;;;;;5070694;28;20469;-70
2022/06/03 10:43:59;;;;;;;4.97;3.17;;;26.70;99.90;;;;;;5069150;28;20517;-70
2022/06/03 10:46:27;;;;;;;3.50;3.07;;;26.80;99.90;;;;;;5070997;28;20478;-71
2022/06/03 10:48:54;;;;;;;4.00;3.60;;;27.10;99.90;;;;;;5069988;28;20466;-70
2022/06/03 11:01:06;;;;;;;5.33;3.23;;;27.40;99.90;;;;;;5070261;28;20595;-71
2022/06/03 11:02:33;;;;;;;4.73;2.77;;;27.70;97.20;;;;;;5070445;28;20940;-70
2022/06/03 11:05:11;;;;;;;2.93;2.63;;;27.50;97.90;;;;;;5069881;28;20549;-71
2022/06/03 11:07:38;;;;;;;3.07;2.87;;;27.40;95.50;;;;;;5071024;28;20486;-71
2022/06/03 11:10:08;;;;;;;3.37;2.70;;;27.10;96.60;;;;;;5069447;28;20550;-72
2022/06/03 11:12:35;;;;;;;3.90;3.23;;;26.80;96.60;;;;;;5069610;28;20514;-71
2022/06/03 11:15:03;;;;;;;6.00;3.60;;;26.60;98.10;;;;;;5070706;28;20463;-71
2022/06/03 11:17:37;;;;;;;3.60;3.20;;;26.50;97.20;;;;;;5070312;28;20457;-71
2022/06/03 11:20:33;;;;;;;3.17;2.90;;;26.30;97.10;;;;;;5068600;28;20464;-71
2022/06/03 11:23:01;;;;;;;3.10;2.90;;;26.10;99.20;;;;;;5069105;28;20544;-70
2022/06/03 11:25:30;;;;;;;3.03;2.80;;;26.00;97.80;;;;;;5070613;28;20462;-71
2022/06/03 11:28:00;;;;;;;4.57;3.03;;;25.90;98.20;;;;;;5068792;28;20497;-71
2022/06/03 11:30:35;;;;;;;3.20;2.90;;;25.80;98.00;;;;;;5070196;28;20462;-70
2022/06/03 11:33:09;;;;;;;3.27;2.80;;;25.60;97.50;;;;;;5068980;28;20481;-71
2022/06/03 11:35:41;;;;;;;3.40;3.10;;;25.50;99.40;;;;;;5070349;28;20509;-70
2022/06/03 11:38:11;;;;;;;3.10;2.90;;;25.50;98.80;;;;;;5068336;28;20549;-70
2022/06/03 11:40:41;;;;;;;4.87;2.97;;;25.50;99.60;;;;;;5071066;28;20470;-70
2022/06/03 11:43:14;;;;;;;3.40;3.00;;;25.40;99.90;;;;;;5069450;28;20482;-71
2022/06/03 11:45:44;;;;;;;3.33;3.03;;;25.40;99.90;;;;;;5069455;28;20969;-73
2022/06/03 11:48:18;;;;;;;3.43;3.13;;;25.40;99.90;;;;;;5067120;28;20493;-72
2022/06/03 11:50:45;;;;;;;3.13;2.93;;;25.40;99.80;;;;;;5070101;28;20462;-73
2022/06/03 11:53:14;;;;;;;3.80;3.50;;;25.40;99.90;;;;;;5068535;28;21396;-73
2022/06/03 11:55:41;;;;;;;3.53;3.30;;;25.40;99.90;;;;;;5070122;28;20459;-74
2022/06/03 11:58:13;;;;;;;3.20;3.00;;;25.40;99.90;;;;;;5067920;28;20451;-76
2022/06/03 12:00:44;;;;;;;9.57;3.67;;;25.40;99.90;;;;;;5069319;28;20473;-75
2022/06/03 12:03:32;;;;;;;3.50;3.20;;;25.40;99.90;;;;;;5069119;28;20482;-74
2022/06/03 12:06:04;;;;;;;4.20;3.80;;;25.30;99.90;;;;;;5068849;28;20462;-71
2022/06/03 12:08:43;;;;;;;3.77;3.50;;;25.30;99.90;;;;;;5068446;28;20494;-71
2022/06/03 12:13:14;;;;;;;4.20;3.80;;;25.20;99.90;;;;;;5068802;28;20852;-71
2022/06/03 12:14:26;;;;;;;3.93;3.63;;;25.20;99.90;;;;;;5068634;28;20577;-71
2022/06/03 12:16:55;;;;;;;3.90;3.53;;;25.10;99.90;;;;;;5069345;28;20455;-73
2022/06/03 12:19:46;;;;;;;4.10;3.70;;;25.10;99.90;;;;;;5068501;28;20831;-74
2022/06/03 12:22:21;;;;;;;4.20;3.90;;;25.10;99.90;;;;;;5052275;28;20459;-73
2022/06/03 12:24:51;;;;;;;3.73;3.43;;;25.10;99.90;;;;;;5048240;28;20502;-74
2022/06/03 12:27:29;;;;;;;4.23;3.50;;;25.10;99.90;;;;;;5049934;28;20523;-74
2022/06/03 12:30:34;;;;;;;3.80;3.50;;;25.10;99.90;;;;;;5048774;28;20466;-76
2022/06/03 12:33:05;;;;;;;3.77;3.47;;;25.10;99.90;;;;;;5049386;28;20475;-78
2022/06/03 12:36:05;;;;;;;4.10;3.80;;;25.00;99.90;;;;;;5029682;28;20467;-77
2022/06/03 12:39:12;;;;;;;4.23;3.83;;;25.00;99.90;;;;;;5028637;28;20468;-75
2022/06/03 12:42:02;;;;;;;5.23;4.30;;;24.90;99.90;;;;;;5029702;28;20463;-75
2022/06/03 12:44:44;;;;;;;4.43;3.57;;;24.80;99.90;;;;;;5028959;28;20464;-75
2022/06/03 12:47:46;;;;;;;6.30;5.03;;;24.70;99.90;;;;;;5045068;28;20498;-74
2022/06/03 12:51:00;;;;;;;3.90;3.60;;;24.70;99.90;;;;;;5049050;28;20961;-74
2022/06/03 12:56:33;;;;;;;6.13;3.47;;;24.60;99.90;;;;;;5168997;22;20481;-71
2022/06/03 12:59:06;;;;;;;4.60;4.20;;;24.60;99.90;;;;;;5078326;28;20454;-71
2022/06/03 13:01:41;;;;;;;10.83;4.60;;;24.60;99.90;;;;;;5088898;28;20540;-71
2022/06/03 13:04:46;;;;;;;5.00;4.50;;;24.60;99.90;;;;;;5089288;28;20984;-71
2022/06/03 13:07:32;;;;;;;5.10;3.97;;;24.60;99.90;;;;;;5005946;28;20481;-70
2022/06/03 13:10:20;;;;;;;5.10;4.00;;;24.50;99.90;;;;;;5005172;28;20468;-72
2022/06/03 13:12:49;;;;;;;4.77;4.37;;;24.50;99.90;;;;;;5066837;28;20489;-72
2022/06/03 13:15:45;;;;;;;5.83;3.93;;;24.60;99.90;;;;;;5088510;28;20975;-70
2022/06/03 13:18:18;;;;;;;4.60;4.20;;;24.70;99.90;;;;;;5088471;28;20484;-69
2022/06/03 13:20:47;;;;;;;3.93;3.57;;;24.70;99.90;;;;;;5092395;28;20477;-72
2022/06/03 13:23:33;;;;;;;5.27;4.37;;;24.70;99.90;;;;;;5091308;28;20477;-72
2022/06/03 13:26:33;;;;;;;5.73;4.27;;;24.70;99.90;;;;;;5092720;28;20476;-72
2022/06/03 13:29:04;;;;;;;4.37;3.97;;;24.60;99.90;;;;;;5091717;28;20492;-74
2022/06/03 13:32:00;;;;;;;4.30;3.90;;;24.60;99.90;;;;;;5092185;28;20461;-71
2022/06/03 13:34:40;;;;;;;4.70;4.30;;;24.40;99.90;;;;;;5084745;28;20497;-71
2022/06/03 13:37:31;;;;;;;4.77;4.37;;;24.20;99.90;;;;;;5084450;28;20492;-71
2022/06/03 13:40:18;;;;;;;5.10;4.30;;;24.10;99.90;;;;;;5084509;28;20997;-74
2022/06/03 13:43:02;;;;;;;4.57;4.17;;;24.00;99.90;;;;;;5068515;28;20547;-71
2022/06/03 13:46:00;;;;;;;4.40;4.00;;;23.80;99.90;;;;;;5086066;28;20461;-71
2022/06/03 13:48:35;;;;;;;5.57;4.67;;;23.70;99.90;;;;;;5083167;28;20485;-72
2022/06/03 13:51:28;;;;;;;5.70;5.20;;;23.60;99.90;;;;;;5084986;28;20483;-72
2022/06/03 13:53:58;;;;;;;5.50;5.03;;;23.60;99.90;;;;;;5084984;28;20607;-71
2022/06/03 13:56:30;;;;;;;5.83;4.43;;;23.60;99.90;;;;;;5085118;28;20458;-71
2022/06/03 13:58:58;;;;;;;4.80;4.40;;;23.60;99.90;;;;;;5083268;28;20450;-71
2022/06/03 14:01:30;;;;;;;5.43;4.77;;;23.50;99.90;;;;;;5083008;28;20470;-71
2022/06/03 14:04:03;;;;;;;5.10;4.60;;;23.50;99.90;;;;;;5083004;28;20482;-70
2022/06/03 14:06:36;;;;;;;5.43;4.90;;;23.50;99.90;;;;;;5082960;28;20531;-70
2022/06/03 14:09:17;;;;;;;4.70;4.30;;;23.40;99.90;;;;;;5084955;28;20481;-70
2022/06/03 14:11:47;;;;;;;5.83;5.33;;;23.40;99.90;;;;;;5085174;28;20472;-70
2022/06/03 14:14:20;;;;;;;5.67;5.20;;;23.40;99.90;;;;;;5085116;28;20481;-71
2022/06/03 14:16:53;;;;;;;6.07;5.17;;;23.40;99.90;;;;;;5081135;28;20971;-71
2022/06/03 14:19:44;;;;;;;5.93;4.80;;;23.30;99.90;;;;;;5083869;28;20452;-71
2022/06/03 14:22:22;;;;;;;7.60;5.53;;;23.30;99.90;;;;;;5084002;28;20557;-70
2022/06/03 14:24:57;;;;;;;6.47;4.67;;;23.20;99.90;;;;;;5084462;28;20457;-69
2022/06/03 14:27:32;;;;;;;5.47;4.90;;;23.30;99.90;;;;;;5083667;28;20466;-70
2022/06/03 14:30:07;;;;;;;7.13;4.40;;;23.30;99.90;;;;;;5082340;28;20464;-69
2022/06/03 14:32:38;;;;;;;6.70;4.67;;;23.30;99.90;;;;;;5084282;28;20473;-70
2022/06/03 14:35:09;;;;;;;6.17;4.80;;;23.30;99.90;;;;;;5085751;28;20478;-69